This is the latest recevied weather packets stored in our database for station/object JA0BES-13. If no packets are shown the sender has not sent any weather packets the latest 10 day(s).
| Time | Temp. | Humidity | Pressure | Rain* | Wind** | Luminosity | Snow |
|---|---|---|---|---|---|---|---|
| 1777497027 | 8.33° C | 100% | 1018.1 hPa | 0 mm | - | - | - |
| 1777496426 | 8.33° C | 100% | 1018.1 hPa | 0 mm | - | - | - |
| 1777463405 | 10.56° C | 96% | 1016.4 hPa | 0 mm | - | - | - |
| 1777462804 | 10.56° C | 95% | 1016.4 hPa | 0 mm | - | - | - |
| 1777461603 | 11.11° C | 94% | 1016.1 hPa | 0 mm | - | - | - |
| 1777461003 | 11.11° C | 93% | 1016.1 hPa | 0 mm | - | - | - |
| 1777460403 | 11.11° C | 93% | 1016.1 hPa | 0 mm | - | - | - |
| 1777459803 | 11.11° C | 91% | 1015.6 hPa | 0 mm | - | - | - |
| 1777459202 | 11.67° C | 91% | 1015.7 hPa | 0 mm | - | - | - |
| 1777458602 | 11.67° C | 90% | 1015.6 hPa | 0 mm | - | - | - |
| 1777458001 | 11.67° C | 91% | 1015.5 hPa | 0 mm | - | - | - |
| 1777457401 | 11.67° C | 91% | 1015.5 hPa | 0 mm | - | - | - |
| 1777456801 | 11.67° C | 91% | 1015.2 hPa | 0 mm | - | - | - |
| 1777456201 | 11.67° C | 90% | 1014.8 hPa | 0 mm | - | - | - |
| 1777455600 | 12.22° C | 90% | 1014.7 hPa | 0 mm | - | - | - |
| 1777455000 | 12.22° C | 90% | 1014.6 hPa | 0 mm | - | - | - |
| 1777454399 | 12.22° C | 90% | 1014.7 hPa | 0 mm | - | - | - |
| 1777453799 | 12.22° C | 90% | 1014.3 hPa | 0 mm | - | - | - |
| 1777453198 | 12.22° C | 89% | 1014.3 hPa | 0 mm | - | - | - |
| 1777452598 | 12.78° C | 88% | 1014.2 hPa | 0 mm | - | - | - |
| 1777451998 | 12.78° C | 87% | 1014.3 hPa | 0 mm | - | - | - |
| 1777451398 | 12.78° C | 87% | 1014.3 hPa | 0 mm | - | - | - |
| 1777450797 | 12.78° C | 86% | 1014.1 hPa | 0 mm | - | - | - |
| 1777450197 | 12.78° C | 86% | 1014.1 hPa | 0 mm | - | - | - |
| 1777449596 | 12.78° C | 86% | 1013.9 hPa | 0 mm | - | - | - |
* Rain since midnight (hover to see other rain measurements)
** Current wind speed in m/s (hover to see current wind gust speed)